Time;durP1;ratioP1;P1;durP2;ratioP2;P2;SDS_P1;SDS_P2;PMS_P1;PMS_P2;Temp;Humidity;BMP_temperature;BMP_pressure;BME280_temperature;BME280_humidity;BME280_pressure;Samples;Min_cycle;Max_cycle;Signal;HPM_P1;HPM_P2
2023/03/03 00:00:57;;;;;;;190.60;19.50;;;-0.50;100.00;;;;;;5107987;28;20640;-77
2023/03/03 00:03:26;;;;;;;124.82;20.70;;;-0.50;100.00;;;;;;5103148;27;20674;-77
2023/03/03 00:05:53;;;;;;;350.13;24.45;;;-0.60;100.00;;;;;;5106951;27;20151;-77
2023/03/03 00:08:21;;;;;;;123.53;21.15;;;-0.60;100.00;;;;;;5098412;27;20048;-77
2023/03/03 00:10:48;;;;;;;155.68;19.02;;;-0.60;100.00;;;;;;5100323;28;20043;-77
2023/03/03 00:13:25;;;;;;;120.75;17.85;;;-0.60;100.00;;;;;;5103632;28;20044;-76
2023/03/03 00:15:56;;;;;;;67.70;15.50;;;-0.60;100.00;;;;;;5098039;28;20662;-77
2023/03/03 00:18:34;;;;;;;76.00;15.50;;;-0.50;100.00;;;;;;5099021;28;20147;-76
2023/03/03 00:21:07;;;;;;;89.40;16.70;;;-0.50;100.00;;;;;;5106795;28;20130;-77
2023/03/03 00:23:37;;;;;;;70.15;15.45;;;-0.60;100.00;;;;;;5097731;28;20051;-76
2023/03/03 00:26:35;;;;;;;145.70;16.35;;;-0.50;100.00;;;;;;5106807;28;20044;-76
2023/03/03 00:29:22;;;;;;;78.60;15.32;;;-0.60;100.00;;;;;;5095921;28;20055;-77
2023/03/03 00:31:49;;;;;;;82.78;16.77;;;-0.50;100.00;;;;;;5094411;28;20044;-77
2023/03/03 00:34:27;;;;;;;74.75;16.60;;;-0.50;100.00;;;;;;5105117;28;20407;-77
2023/03/03 00:36:56;;;;;;;106.65;16.50;;;-0.50;100.00;;;;;;5097225;28;20044;-77
2023/03/03 00:39:36;;;;;;;172.38;18.90;;;-0.50;100.00;;;;;;5101597;28;20055;-77
2023/03/03 00:42:16;;;;;;;174.65;19.92;;;-0.60;100.00;;;;;;5104764;28;20047;-77
2023/03/03 00:44:43;;;;;;;217.75;20.05;;;-0.70;100.00;;;;;;5109447;28;20051;-77
2023/03/03 00:47:25;;;;;;;173.10;18.58;;;-0.70;100.00;;;;;;5101470;28;20040;-77
2023/03/03 00:50:23;;;;;;;141.32;17.02;;;-0.70;100.00;;;;;;5108239;28;20075;-77
2023/03/03 00:53:15;;;;;;;172.32;19.45;;;-0.80;100.00;;;;;;5093321;28;20054;-77
2023/03/03 00:55:43;;;;;;;164.27;19.48;;;-0.80;100.00;;;;;;5091157;28;20079;-77
2023/03/03 00:58:10;;;;;;;231.00;22.27;;;-0.80;100.00;;;;;;5105408;28;20044;-78
2023/03/03 01:00:38;;;;;;;213.57;19.23;;;-0.80;100.00;;;;;;5103572;27;20062;-77
2023/03/03 01:03:08;;;;;;;299.75;21.83;;;-0.80;100.00;;;;;;5091873;28;20063;-77
2023/03/03 01:05:35;;;;;;;177.38;19.48;;;-0.80;100.00;;;;;;5097479;28;20048;-77
2023/03/03 01:08:03;;;;;;;206.45;20.25;;;-0.80;100.00;;;;;;5097992;28;20519;-77
2023/03/03 01:10:33;;;;;;;143.95;18.52;;;-0.70;100.00;;;;;;5105196;28;20044;-77
2023/03/03 01:13:00;;;;;;;221.45;23.48;;;-0.70;100.00;;;;;;5104567;28;20426;-76
2023/03/03 01:15:27;;;;;;;331.00;25.95;;;-0.70;100.00;;;;;;5096977;28;20056;-77
2023/03/03 01:17:54;;;;;;;277.45;24.52;;;-0.70;100.00;;;;;;5102602;28;20047;-77
2023/03/03 01:20:21;;;;;;;197.43;20.35;;;-0.80;100.00;;;;;;5106726;28;20051;-77
2023/03/03 01:22:48;;;;;;;278.25;23.52;;;-0.70;100.00;;;;;;5103810;28;20051;-77
2023/03/03 01:25:15;;;;;;;330.15;25.88;;;-0.70;100.00;;;;;;5101394;27;20048;-77
2023/03/03 01:27:42;;;;;;;240.48;24.17;;;-0.70;100.00;;;;;;5100160;28;20044;-77
2023/03/03 01:30:13;;;;;;;258.83;27.65;;;-0.80;100.00;;;;;;5102705;28;20122;-77
2023/03/03 01:36:12;;;;;;;175.63;23.60;;;-0.70;100.00;;;;;;5036476;28;20140;-77
2023/03/03 01:38:39;;;;;;;231.55;24.73;;;-0.70;100.00;;;;;;5048368;28;20055;-77
2023/03/03 01:41:06;;;;;;;551.92;32.70;;;-0.70;100.00;;;;;;5046102;28;20044;-77
2023/03/03 01:43:33;;;;;;;384.52;26.77;;;-0.70;100.00;;;;;;5043668;28;20645;-77
2023/03/03 01:46:00;;;;;;;322.27;27.15;;;-0.70;100.00;;;;;;5044999;28;20053;-77
2023/03/03 01:48:35;;;;;;;191.68;19.75;;;-0.70;100.00;;;;;;5044034;28;20053;-78
2023/03/03 01:51:11;;;;;;;262.20;19.80;;;-0.70;100.00;;;;;;5047852;28;20059;-78
2023/03/03 01:53:42;;;;;;;267.27;21.20;;;-0.70;100.00;;;;;;5034264;28;20054;-77
2023/03/03 01:56:09;;;;;;;163.25;18.67;;;-0.70;100.00;;;;;;5042873;28;20057;-77
2023/03/03 01:58:42;;;;;;;129.57;18.25;;;-0.70;100.00;;;;;;5045121;28;20148;-77
2023/03/03 02:01:14;;;;;;;128.50;17.10;;;-0.70;100.00;;;;;;5044765;28;20053;-78
2023/03/03 02:03:42;;;;;;;245.15;20.83;;;-0.70;100.00;;;;;;5041986;28;20136;-77
2023/03/03 02:06:14;;;;;;;160.57;19.83;;;-0.70;100.00;;;;;;5044313;28;20053;-77
2023/03/03 02:08:59;;;;;;;134.60;17.50;;;-0.70;100.00;;;;;;5042861;28;20060;-77
2023/03/03 02:11:28;;;;;;;119.43;17.95;;;-0.70;100.00;;;;;;5041689;28;20120;-77
2023/03/03 02:13:55;;;;;;;279.02;20.63;;;-0.70;100.00;;;;;;5040433;28;20418;-76
2023/03/03 02:16:22;;;;;;;125.40;16.98;;;-0.80;100.00;;;;;;5061495;28;20045;-77
2023/03/03 02:18:49;;;;;;;174.98;18.40;;;-0.80;100.00;;;;;;5041171;28;20123;-77
2023/03/03 02:21:18;;;;;;;161.82;19.65;;;-0.80;100.00;;;;;;5039566;28;20167;-77
2023/03/03 02:24:12;;;;;;;205.63;20.85;;;-0.80;100.00;;;;;;5050903;28;20045;-77
2023/03/03 02:26:40;;;;;;;191.13;19.30;;;-0.80;100.00;;;;;;5048890;28;21563;-77
2023/03/03 02:29:09;;;;;;;138.07;18.40;;;-0.90;100.00;;;;;;5054760;28;20111;-77
2023/03/03 02:31:37;;;;;;;86.93;15.98;;;-0.80;100.00;;;;;;5037434;28;20057;-77
2023/03/03 02:34:04;;;;;;;180.73;17.02;;;-0.90;100.00;;;;;;5045416;28;20040;-77
2023/03/03 02:36:35;;;;;;;261.55;18.77;;;-0.90;100.00;;;;;;5033034;28;20059;-77
2023/03/03 02:39:20;;;;;;;177.93;21.13;;;-0.90;100.00;;;;;;5033036;28;20060;-77
2023/03/03 02:42:09;;;;;;;125.28;15.82;;;-0.90;100.00;;;;;;5035142;28;20136;-78
2023/03/03 02:44:35;;;;;;;254.35;19.73;;;-0.90;100.00;;;;;;5028990;28;20526;-77
2023/03/03 02:47:03;;;;;;;276.05;21.02;;;-0.90;100.00;;;;;;5032891;28;20053;-77
2023/03/03 02:49:31;;;;;;;160.75;18.50;;;-0.90;100.00;;;;;;5012435;28;20518;-77
2023/03/03 02:52:00;;;;;;;147.93;17.13;;;-0.90;100.00;;;;;;5019840;28;20635;-77
2023/03/03 02:54:29;;;;;;;120.43;15.77;;;-0.90;100.00;;;;;;5030454;28;20056;-77
2023/03/03 02:56:58;;;;;;;178.40;18.17;;;-0.90;100.00;;;;;;5027842;28;20068;-77
2023/03/03 02:59:24;;;;;;;243.15;19.33;;;-0.90;100.00;;;;;;5011898;28;20057;-77
2023/03/03 03:01:53;;;;;;;97.53;16.27;;;-0.90;100.00;;;;;;5032901;28;20075;-77
2023/03/03 03:04:23;;;;;;;173.05;17.33;;;-0.80;100.00;;;;;;5019949;28;20048;-77
2023/03/03 03:06:50;;;;;;;92.13;16.55;;;-0.80;100.00;;;;;;5017883;28;20049;-77
2023/03/03 03:09:20;;;;;;;186.32;19.42;;;-0.80;100.00;;;;;;5013227;28;20128;-77
2023/03/03 03:11:46;;;;;;;79.57;15.85;;;-0.80;100.00;;;;;;5008342;28;20049;-77
2023/03/03 03:14:14;;;;;;;139.25;17.33;;;-0.80;100.00;;;;;;5018576;28;20052;-77
2023/03/03 03:16:41;;;;;;;199.85;17.65;;;-0.80;100.00;;;;;;5029887;28;20061;-77
2023/03/03 03:19:08;;;;;;;156.80;16.92;;;-0.80;100.00;;;;;;5029324;28;20060;-77
2023/03/03 03:21:35;;;;;;;161.32;15.70;;;-0.90;100.00;;;;;;5018166;28;20053;-78
2023/03/03 03:24:02;;;;;;;87.60;16.55;;;-0.80;100.00;;;;;;5013683;28;20057;-78
2023/03/03 03:26:29;;;;;;;120.75;16.60;;;-0.80;100.00;;;;;;5028617;28;20075;-77
2023/03/03 03:28:56;;;;;;;132.40;15.45;;;-0.90;100.00;;;;;;5028616;28;20060;-77
2023/03/03 03:31:23;;;;;;;120.20;15.68;;;-0.90;100.00;;;;;;5030071;28;20057;-78
2023/03/03 03:33:51;;;;;;;62.65;14.77;;;-0.90;100.00;;;;;;5030566;28;20049;-78
2023/03/03 03:36:18;;;;;;;64.00;15.35;;;-0.80;100.00;;;;;;5055490;28;20056;-78
2023/03/03 03:38:45;;;;;;;323.95;20.65;;;-0.80;100.00;;;;;;5034173;28;20068;-74
2023/03/03 03:41:12;;;;;;;204.73;17.30;;;-0.90;100.00;;;;;;5056117;28;20134;-77
2023/03/03 03:43:40;;;;;;;92.53;16.38;;;-0.90;100.00;;;;;;5043682;28;20052;-77
2023/03/03 03:46:07;;;;;;;136.38;16.85;;;-0.90;100.00;;;;;;5041906;28;20052;-77
2023/03/03 03:48:34;;;;;;;70.75;15.30;;;-0.90;100.00;;;;;;5058843;28;20692;-77
2023/03/03 03:51:01;;;;;;;142.98;16.42;;;-0.90;100.00;;;;;;5042395;28;20053;-77
2023/03/03 03:53:28;;;;;;;141.27;15.98;;;-0.90;100.00;;;;;;5055306;28;20368;-77
2023/03/03 03:55:55;;;;;;;77.28;16.38;;;-0.90;100.00;;;;;;5026713;28;20049;-77
2023/03/03 03:58:22;;;;;;;142.55;17.35;;;-0.90;100.00;;;;;;5027801;28;20053;-77
2023/03/03 04:00:48;;;;;;;231.48;18.58;;;-0.90;100.00;;;;;;5029435;28;20841;-77
2023/03/03 04:03:15;;;;;;;196.27;16.85;;;-1.00;100.00;;;;;;5026870;28;20648;-78
2023/03/03 04:05:43;;;;;;;158.90;16.13;;;-1.00;100.00;;;;;;5029714;28;20072;-77
2023/03/03 04:08:10;;;;;;;151.38;16.55;;;-1.00;100.00;;;;;;5062369;28;20117;-77
2023/03/03 04:10:37;;;;;;;173.45;17.73;;;-1.00;100.00;;;;;;5058797;22;20441;-78
2023/03/03 04:13:04;;;;;;;170.07;17.80;;;-1.00;100.00;;;;;;5082631;28;20048;-77
2023/03/03 04:15:31;;;;;;;118.10;16.10;;;-1.00;100.00;;;;;;5061078;28;20469;-77
2023/03/03 04:17:58;;;;;;;129.27;16.80;;;-1.00;100.00;;;;;;5056115;28;20048;-77
2023/03/03 04:20:25;;;;;;;157.05;16.67;;;-1.00;100.00;;;;;;5082552;28;20743;-77
2023/03/03 04:22:52;;;;;;;233.27;18.95;;;-1.00;100.00;;;;;;5054031;28;20075;-77
2023/03/03 04:25:19;;;;;;;267.90;21.98;;;-1.00;100.00;;;;;;5087074;28;20890;-77
2023/03/03 04:27:46;;;;;;;146.75;17.55;;;-1.00;100.00;;;;;;5067383;28;20048;-76
2023/03/03 04:30:14;;;;;;;62.72;15.80;;;-1.00;100.00;;;;;;5086674;28;20040;-77
2023/03/03 04:32:41;;;;;;;173.38;17.55;;;-1.00;100.00;;;;;;5079296;28;20048;-77
2023/03/03 04:35:09;;;;;;;143.23;17.10;;;-1.00;100.00;;;;;;5067730;28;20048;-77
2023/03/03 04:37:37;;;;;;;133.75;17.10;;;-1.00;100.00;;;;;;5079308;28;20059;-77
2023/03/03 04:40:06;;;;;;;147.60;16.63;;;-1.00;100.00;;;;;;5067818;28;20058;-76
2023/03/03 04:42:34;;;;;;;117.85;16.83;;;-1.00;100.00;;;;;;5055748;28;20063;-77
2023/03/03 04:45:01;;;;;;;158.38;16.40;;;-1.00;100.00;;;;;;5080251;28;20044;-77
2023/03/03 04:47:27;;;;;;;114.45;16.42;;;-1.00;100.00;;;;;;5062804;28;20086;-76
2023/03/03 04:49:54;;;;;;;66.13;15.38;;;-1.00;100.00;;;;;;5063406;28;20070;-76
2023/03/03 04:52:21;;;;;;;124.68;16.65;;;-1.00;100.00;;;;;;5069667;28;20045;-77
2023/03/03 04:54:48;;;;;;;112.75;15.82;;;-1.00;100.00;;;;;;5085585;28;20053;-75
2023/03/03 04:57:14;;;;;;;66.75;13.52;;;-1.00;100.00;;;;;;5076763;28;20766;-75
2023/03/03 04:59:41;;;;;;;126.45;14.95;;;-1.00;100.00;;;;;;5083391;28;20056;-76
2023/03/03 05:02:08;;;;;;;79.35;15.68;;;-1.10;100.00;;;;;;5085623;28;20079;-76
2023/03/03 05:04:35;;;;;;;198.35;16.33;;;-1.10;100.00;;;;;;5063449;28;20052;-75
2023/03/03 05:07:02;;;;;;;93.88;15.93;;;-1.10;100.00;;;;;;5066140;28;20053;-75
2023/03/03 05:09:29;;;;;;;159.80;17.17;;;-1.10;100.00;;;;;;5076885;28;20052;-75
2023/03/03 05:11:56;;;;;;;111.43;15.77;;;-1.10;100.00;;;;;;5074969;28;20044;-76
2023/03/03 05:14:23;;;;;;;167.18;18.55;;;-1.10;100.00;;;;;;5060027;28;20098;-76
2023/03/03 05:16:50;;;;;;;114.00;15.55;;;-1.10;100.00;;;;;;5067227;28;20135;-76
2023/03/03 05:19:17;;;;;;;144.90;16.95;;;-1.10;100.00;;;;;;5064834;28;20059;-76
2023/03/03 05:21:44;;;;;;;100.97;15.57;;;-1.10;100.00;;;;;;5084579;28;20055;-76
2023/03/03 05:24:12;;;;;;;137.10;16.60;;;-1.10;100.00;;;;;;5078495;28;20662;-75
2023/03/03 05:26:40;;;;;;;151.27;16.35;;;-1.10;100.00;;;;;;5062024;28;20049;-76
2023/03/03 05:29:07;;;;;;;110.68;16.83;;;-1.10;100.00;;;;;;5075695;28;20158;-76
2023/03/03 05:32:08;;;;;;;108.03;16.85;;;-1.10;100.00;;;;;;5066129;28;20925;-76
2023/03/03 05:34:35;;;;;;;66.72;15.27;;;-1.10;100.00;;;;;;5077792;28;20826;-79
2023/03/03 05:37:04;;;;;;;150.23;17.67;;;-1.10;100.00;;;;;;5079549;28;20535;-76
2023/03/03 05:39:31;;;;;;;77.60;18.17;;;-1.10;100.00;;;;;;5061325;28;20044;-77
2023/03/03 05:41:59;;;;;;;129.30;17.27;;;-1.10;100.00;;;;;;5065552;28;20055;-77
2023/03/03 05:44:26;;;;;;;130.68;21.80;;;-1.00;100.00;;;;;;5087285;28;20047;-77
2023/03/03 05:46:55;;;;;;;149.82;18.20;;;-1.00;100.00;;;;;;5080027;28;20516;-77
2023/03/03 05:49:22;;;;;;;163.98;19.25;;;-1.00;100.00;;;;;;5087983;28;20537;-77
2023/03/03 05:51:49;;;;;;;141.98;18.75;;;-1.00;100.00;;;;;;5085209;28;20063;-77
2023/03/03 05:54:16;;;;;;;117.65;18.55;;;-1.00;100.00;;;;;;5086643;28;20122;-77
2023/03/03 05:56:42;;;;;;;93.53;17.73;;;-1.00;100.00;;;;;;5079674;28;20067;-78
2023/03/03 05:59:09;;;;;;;227.75;23.55;;;-0.90;100.00;;;;;;5082685;28;20044;-77
2023/03/03 06:01:36;;;;;;;105.45;19.13;;;-0.90;100.00;;;;;;5083320;28;20070;-77
2023/03/03 06:04:03;;;;;;;162.40;22.35;;;-0.90;100.00;;;;;;5063780;28;20130;-78
2023/03/03 06:06:30;;;;;;;240.23;22.77;;;-0.90;100.00;;;;;;5080693;28;20055;-77
2023/03/03 06:08:56;;;;;;;151.82;20.75;;;-1.00;100.00;;;;;;5075942;28;20076;-74
2023/03/03 06:11:23;;;;;;;96.78;17.05;;;-1.00;100.00;;;;;;5062999;28;20044;-74
2023/03/03 06:13:50;;;;;;;98.47;18.17;;;-1.00;100.00;;;;;;5068234;28;20102;-78
2023/03/03 06:16:17;;;;;;;106.93;19.35;;;-1.00;100.00;;;;;;5077527;28;20055;-79
2023/03/03 06:18:44;;;;;;;164.38;19.80;;;-0.90;100.00;;;;;;5069178;28;20456;-78
2023/03/03 06:21:11;;;;;;;265.73;24.05;;;-0.90;100.00;;;;;;5065399;28;20097;-77
2023/03/03 06:23:38;;;;;;;113.82;20.98;;;-0.80;100.00;;;;;;5081928;28;20129;-83
2023/03/03 06:26:05;;;;;;;113.47;20.73;;;-0.80;100.00;;;;;;5067032;28;20063;-77
2023/03/03 06:28:32;;;;;;;123.63;19.75;;;-0.80;100.00;;;;;;5062466;28;20503;-84
2023/03/03 06:30:59;;;;;;;148.77;24.35;;;-0.70;100.00;;;;;;5065596;28;20045;-83
2023/03/03 06:37:06;;;;;;;82.78;18.13;;;-0.70;100.00;;;;;;5104028;28;20142;-75
2023/03/03 06:39:33;;;;;;;119.47;21.20;;;-0.60;100.00;;;;;;5086509;28;20126;-79
2023/03/03 06:41:59;;;;;;;120.10;23.23;;;-0.50;100.00;;;;;;5086359;28;20126;-76
2023/03/03 06:44:26;;;;;;;133.43;23.77;;;-0.50;100.00;;;;;;5080455;28;20059;-76
2023/03/03 06:46:56;;;;;;;134.15;23.77;;;-0.40;100.00;;;;;;5099576;28;20059;-76
2023/03/03 06:49:23;;;;;;;145.95;24.02;;;-0.40;100.00;;;;;;5102772;28;20078;-76
2023/03/03 06:51:50;;;;;;;76.82;22.88;;;-0.40;100.00;;;;;;5079800;28;20439;-76
2023/03/03 06:54:20;;;;;;;140.73;28.13;;;-0.30;100.00;;;;;;5082415;28;20670;-76
2023/03/03 06:56:48;;;;;;;145.02;25.08;;;-0.30;100.00;;;;;;5082649;28;20495;-77
2023/03/03 06:59:16;;;;;;;117.63;24.27;;;-0.30;100.00;;;;;;5087324;28;20051;-77
2023/03/03 07:01:45;;;;;;;80.47;24.10;;;-0.20;100.00;;;;;;5087557;28;20044;-77
2023/03/03 07:04:18;;;;;;;133.02;24.98;;;-0.20;100.00;;;;;;5083717;28;20496;-76
2023/03/03 07:06:45;;;;;;;154.73;27.67;;;-0.20;100.00;;;;;;5083620;28;20044;-77
2023/03/03 07:09:22;;;;;;;98.43;24.63;;;-0.20;100.00;;;;;;5083963;28;20052;-77
2023/03/03 07:11:51;;;;;;;147.10;27.15;;;-0.20;100.00;;;;;;5083675;28;20435;-77
2023/03/03 07:14:19;;;;;;;152.27;25.27;;;-0.20;100.00;;;;;;5090678;28;20043;-76
2023/03/03 07:16:50;;;;;;;208.35;27.73;;;-0.10;100.00;;;;;;5088115;28;20055;-77
2023/03/03 07:19:22;;;;;;;118.07;25.73;;;-0.10;100.00;;;;;;5081543;28;20611;-77
2023/03/03 07:21:50;;;;;;;108.70;26.30;;;-0.10;100.00;;;;;;5108017;28;20054;-76
2023/03/03 07:24:17;;;;;;;120.25;27.70;;;0.00;100.00;;;;;;5086228;28;20409;-77
2023/03/03 07:26:44;;;;;;;134.80;27.15;;;0.00;100.00;;;;;;5086092;28;20048;-77
2023/03/03 07:29:29;;;;;;;95.30;25.17;;;0.00;100.00;;;;;;5108253;28;20044;-77
2023/03/03 07:31:58;;;;;;;179.73;27.65;;;0.00;100.00;;;;;;5096881;28;20117;-77
2023/03/03 07:34:46;;;;;;;86.28;26.75;;;0.00;100.00;;;;;;5086584;28;20044;-76
2023/03/03 07:37:34;;;;;;;210.95;28.55;;;0.10;100.00;;;;;;5086546;28;20048;-77
2023/03/03 07:40:21;;;;;;;103.13;28.13;;;0.20;100.00;;;;;;5083311;28;20055;-77
2023/03/03 07:42:48;;;;;;;133.95;28.73;;;0.20;100.00;;;;;;5085387;28;20492;-77
2023/03/03 07:45:31;;;;;;;85.57;27.48;;;0.20;100.00;;;;;;5104229;28;20040;-77
2023/03/03 07:48:23;;;;;;;244.00;29.20;;;0.30;100.00;;;;;;5099637;28;20047;-77
2023/03/03 07:50:51;;;;;;;140.13;25.77;;;0.20;100.00;;;;;;5101986;27;20127;-79
2023/03/03 07:53:27;;;;;;;152.10;26.73;;;0.30;100.00;;;;;;5092415;28;20039;-76
2023/03/03 07:55:55;;;;;;;109.85;25.98;;;0.30;100.00;;;;;;5090290;28;20048;-78
2023/03/03 07:58:32;;;;;;;175.35;26.08;;;0.30;100.00;;;;;;5108598;28;20051;-75
2023/03/03 08:01:41;;;;;;;175.52;28.15;;;0.30;100.00;;;;;;5104604;28;20059;-76
2023/03/03 08:04:16;;;;;;;124.78;30.40;;;0.40;100.00;;;;;;5088295;28;20486;-77
2023/03/03 08:06:48;;;;;;;;;;;0.40;100.00;;;;;;5084987;28;20553;-76
2023/03/03 08:09:28;;;;;;;73.88;24.63;;;0.50;100.00;;;;;;5088441;28;19947;-76
2023/03/03 08:12:26;;;;;;;127.68;24.85;;;0.60;100.00;;;;;;5082414;28;20047;-76
2023/03/03 08:14:55;;;;;;;171.18;25.52;;;0.60;100.00;;;;;;5084434;28;20134;-76
2023/03/03 08:17:25;;;;;;;113.78;24.67;;;0.60;100.00;;;;;;5102521;28;20048;-76
2023/03/03 08:19:54;;;;;;;139.13;25.75;;;0.70;100.00;;;;;;5100185;28;20683;-76
2023/03/03 08:22:36;;;;;;;154.65;25.35;;;0.70;100.00;;;;;;5099794;27;20118;-77
2023/03/03 08:25:03;;;;;;;98.47;23.50;;;0.60;100.00;;;;;;5102683;28;20052;-76
2023/03/03 08:27:30;;;;;;;115.05;24.13;;;0.70;100.00;;;;;;5083836;28;20078;-76
2023/03/03 08:29:57;;;;;;;131.13;27.10;;;0.90;100.00;;;;;;5082950;28;20044;-76
2023/03/03 08:32:24;;;;;;;94.68;24.63;;;1.00;100.00;;;;;;5087044;28;20043;-76
2023/03/03 08:34:51;;;;;;;136.55;24.05;;;1.00;100.00;;;;;;5077237;27;20129;-76
2023/03/03 08:37:18;;;;;;;139.82;25.00;;;1.10;100.00;;;;;;5107108;28;20050;-76
2023/03/03 08:39:44;;;;;;;110.40;25.33;;;1.10;100.00;;;;;;5095313;27;20526;-76
2023/03/03 08:42:11;;;;;;;117.18;27.08;;;1.10;100.00;;;;;;5096071;28;20046;-76
2023/03/03 08:44:41;;;;;;;86.97;24.48;;;1.00;100.00;;;;;;5102560;28;20043;-76
2023/03/03 08:47:08;;;;;;;174.07;23.35;;;1.10;100.00;;;;;;5072829;28;20044;-76
2023/03/03 08:49:35;;;;;;;62.15;22.17;;;1.10;100.00;;;;;;5082163;28;20053;-78
2023/03/03 08:52:02;;;;;;;122.25;23.83;;;1.20;100.00;;;;;;5073453;28;20058;-76
2023/03/03 08:54:29;;;;;;;91.63;23.55;;;1.20;100.00;;;;;;5081656;28;20127;-77
2023/03/03 08:56:56;;;;;;;103.50;24.15;;;1.10;100.00;;;;;;5082930;28;20040;-76
2023/03/03 08:59:23;;;;;;;60.50;20.42;;;1.20;100.00;;;;;;5105845;28;20730;-76
2023/03/03 09:01:49;;;;;;;75.20;23.45;;;1.20;100.00;;;;;;5106094;28;20059;-76
2023/03/03 09:04:16;;;;;;;65.55;22.95;;;1.30;100.00;;;;;;5101168;28;20059;-76
2023/03/03 09:06:43;;;;;;;124.88;23.52;;;1.50;100.00;;;;;;5088825;28;20062;-76
2023/03/03 09:09:10;;;;;;;74.13;22.17;;;1.50;100.00;;;;;;5106916;28;20051;-76
2023/03/03 09:11:37;;;;;;;99.80;25.25;;;1.60;100.00;;;;;;5108891;28;20707;-76
2023/03/03 09:14:13;;;;;;;75.95;22.95;;;1.70;100.00;;;;;;5084726;28;20044;-80
2023/03/03 09:16:50;;;;;;;90.80;24.00;;;1.70;100.00;;;;;;5102847;28;20449;-77
2023/03/03 09:19:31;;;;;;;67.13;23.27;;;1.70;100.00;;;;;;5091030;28;20047;-78
2023/03/03 09:22:17;;;;;;;91.55;24.58;;;1.80;100.00;;;;;;5084385;28;20046;-77
2023/03/03 09:24:46;;;;;;;74.28;23.85;;;1.70;100.00;;;;;;5083393;28;20184;-77
2023/03/03 09:27:40;;;;;;;63.88;24.13;;;1.70;100.00;;;;;;5108775;28;20511;-77
2023/03/03 09:30:41;;;;;;;66.03;23.73;;;1.90;100.00;;;;;;5078131;28;20822;-77
2023/03/03 09:33:23;;;;;;;61.45;23.40;;;1.90;100.00;;;;;;5099866;28;20147;-77
2023/03/03 09:36:10;;;;;;;59.17;21.58;;;1.80;100.00;;;;;;5102284;28;20044;-77
2023/03/03 09:38:42;;;;;;;56.80;22.67;;;1.90;100.00;;;;;;5085270;28;20781;-77
2023/03/03 09:41:34;;;;;;;60.45;23.27;;;2.00;100.00;;;;;;5106480;28;20134;-78
2023/03/03 09:44:11;;;;;;;55.97;22.98;;;2.20;100.00;;;;;;5106647;28;20055;-77
2023/03/03 09:47:08;;;;;;;75.97;24.95;;;2.30;99.90;;;;;;5100421;28;20134;-77
2023/03/03 09:49:59;;;;;;;67.55;24.77;;;2.40;99.80;;;;;;5104589;28;20056;-78
2023/03/03 09:52:50;;;;;;;61.70;24.05;;;2.40;99.20;;;;;;5100216;28;20051;-78
2023/03/03 09:55:45;;;;;;;67.93;25.05;;;2.40;99.00;;;;;;5087907;28;20086;-80
2023/03/03 09:58:18;;;;;;;56.25;23.10;;;2.40;98.50;;;;;;5084191;28;20426;-79
2023/03/03 10:01:06;;;;;;;68.40;29.85;;;2.20;99.10;;;;;;5087619;28;20055;-79
2023/03/03 10:03:45;;;;;;;63.05;23.58;;;2.30;99.90;;;;;;5103304;28;20054;-79
2023/03/03 10:06:15;;;;;;;69.97;24.90;;;2.60;99.80;;;;;;5082105;28;20044;-79
2023/03/03 10:08:56;;;;;;;65.20;25.02;;;2.60;98.40;;;;;;5090797;28;20046;-80
2023/03/03 10:11:45;;;;;;;65.45;25.58;;;2.60;98.40;;;;;;5086083;28;20456;-80
2023/03/03 10:14:34;;;;;;;65.82;23.67;;;2.60;99.00;;;;;;5087943;28;20039;-80
2023/03/03 10:17:08;;;;;;;61.05;22.73;;;2.70;98.00;;;;;;5090507;28;20044;-78
2023/03/03 10:19:40;;;;;;;60.55;24.15;;;2.70;97.40;;;;;;5087461;28;20047;-78
2023/03/03 10:22:29;;;;;;;64.22;22.38;;;2.70;97.60;;;;;;5091551;28;20399;-79
2023/03/03 10:25:31;;;;;;;56.72;22.27;;;2.70;97.40;;;;;;5086833;28;20048;-78
2023/03/03 10:28:07;;;;;;;50.42;21.23;;;2.50;97.70;;;;;;5076717;28;20455;-78
2023/03/03 10:30:52;;;;;;;60.45;23.60;;;2.60;98.10;;;;;;5104453;28;20079;-78
2023/03/03 10:33:41;;;;;;;61.03;22.35;;;2.60;98.40;;;;;;5097341;28;20050;-78
2023/03/03 10:36:08;;;;;;;55.25;22.00;;;2.40;97.80;;;;;;5096334;28;20048;-78
2023/03/03 10:39:10;;;;;;;54.83;22.33;;;2.40;99.00;;;;;;5080232;28;20122;-78
2023/03/03 10:41:37;;;;;;;53.25;22.48;;;2.40;98.50;;;;;;5047168;28;20384;-79
2023/03/03 10:44:28;;;;;;;58.42;21.38;;;2.60;98.50;;;;;;5093612;28;20051;-78
2023/03/03 10:47:16;;;;;;;58.78;21.52;;;2.70;98.60;;;;;;5111736;28;20074;-79
2023/03/03 10:49:51;;;;;;;58.50;22.75;;;2.70;98.10;;;;;;5109060;27;20138;-79
2023/03/03 10:52:38;;;;;;;58.15;22.13;;;2.70;98.20;;;;;;5110339;28;20569;-79
2023/03/03 10:55:17;;;;;;;55.88;23.13;;;2.70;97.60;;;;;;5067309;22;20111;-90
2023/03/03 11:20:24;;;;;;;40.38;18.77;;;150.00;100.00;;;;;;5073296;27;20509;-76
2023/03/03 11:23:22;;;;;;;38.95;19.15;;;3.60;93.10;;;;;;5079012;28;20044;-76
2023/03/03 11:26:00;;;;;;;37.30;16.52;;;3.50;94.40;;;;;;5071448;28;20059;-79
2023/03/03 11:28:45;;;;;;;34.35;15.95;;;3.40;93.30;;;;;;5081238;28;20464;-79
2023/03/03 11:31:25;;;;;;;34.87;16.67;;;3.40;94.20;;;;;;5084626;28;20109;-76
2023/03/03 11:34:18;;;;;;;39.08;16.95;;;3.40;93.40;;;;;;5080337;28;20071;-79
2023/03/03 11:36:59;;;;;;;35.72;17.30;;;3.20;93.90;;;;;;5077374;28;20098;-80
2023/03/03 11:39:26;;;;;;;34.08;16.02;;;3.30;95.20;;;;;;5081779;28;20044;-82
2023/03/03 11:42:22;;;;;;;32.45;16.45;;;3.30;94.80;;;;;;5083642;28;20052;-80
2023/03/03 11:44:58;;;;;;;33.30;15.95;;;3.30;93.90;;;;;;5037357;28;20173;-81
2023/03/03 11:47:38;;;;;;;34.00;15.18;;;3.30;94.00;;;;;;5080084;28;20048;-75
2023/03/03 11:50:13;;;;;;;29.75;14.98;;;3.50;96.00;;;;;;5077560;28;20667;-74
2023/03/03 11:53:04;;;;;;;33.58;14.93;;;3.80;93.40;;;;;;5083737;28;20059;-74
2023/03/03 11:55:40;;;;;;;33.45;14.85;;;3.90;92.50;;;;;;5077497;28;20048;-76
2023/03/03 11:58:37;;;;;;;37.35;14.95;;;4.00;91.20;;;;;;5082084;28;20558;-76
2023/03/03 12:01:28;;;;;;;32.60;15.20;;;3.80;91.30;;;;;;5076079;28;20054;-75
2023/03/03 12:04:19;;;;;;;32.35;15.20;;;3.60;91.30;;;;;;5078184;28;20306;-76
2023/03/03 12:07:01;;;;;;;27.30;14.15;;;3.50;92.60;;;;;;5080129;28;20048;-77
2023/03/03 12:09:55;;;;;;;29.88;14.25;;;3.60;92.10;;;;;;5073796;28;20052;-76
2023/03/03 12:15:31;;;;;;;29.00;13.48;;;3.70;90.50;;;;;;5037277;28;20041;-77
2023/03/03 12:18:10;;;;;;;27.33;13.57;;;3.70;90.80;;;;;;5020131;28;20046;-77
2023/03/03 12:20:55;;;;;;;31.52;13.70;;;3.40;91.20;;;;;;5021856;28;20580;-77
2023/03/03 12:23:35;;;;;;;28.30;12.90;;;3.40;91.60;;;;;;5043195;28;20176;-81
2023/03/03 12:26:05;;;;;;;29.88;13.20;;;3.30;91.90;;;;;;5024286;28;20140;-82
2023/03/03 12:28:41;;;;;;;30.23;13.43;;;3.10;93.20;;;;;;5026660;28;20408;-80
2023/03/03 12:31:10;;;;;;;32.15;13.40;;;3.20;93.50;;;;;;5029295;28;20053;-81
2023/03/03 12:33:43;;;;;;;24.65;11.65;;;3.20;93.20;;;;;;5027302;28;20061;-81
2023/03/03 12:36:13;;;;;;;26.60;10.15;;;3.00;93.30;;;;;;5030839;28;20049;-81
2023/03/03 12:39:00;;;;;;;23.65;10.00;;;2.90;93.90;;;;;;5015332;28;20108;-79
2023/03/03 12:41:45;;;;;;;25.27;11.25;;;2.90;94.70;;;;;;5031153;28;20053;-82
2023/03/03 12:44:46;;;;;;;22.85;10.57;;;2.90;95.10;;;;;;5030831;28;20052;-78
2023/03/03 12:47:38;;;;;;;25.77;10.80;;;3.10;93.60;;;;;;5009838;28;20049;-79
2023/03/03 12:50:26;;;;;;;29.17;11.27;;;3.00;94.00;;;;;;5009977;28;20050;-79
2023/03/03 12:53:11;;;;;;;26.63;11.02;;;3.00;93.20;;;;;;5025878;28;20064;-81
2023/03/03 12:55:48;;;;;;;;;;;2.90;93.20;;;;;;5030494;28;20457;-81
2023/03/03 12:58:33;;;;;;;29.80;10.95;;;2.90;93.30;;;;;;5031541;28;19921;-81
2023/03/03 13:01:05;;;;;;;25.67;10.95;;;2.80;93.50;;;;;;5030795;28;20538;-81
2023/03/03 13:06:08;;;;;;;23.67;11.57;;;2.80;94.50;;;;;;5030966;28;20465;-75
2023/03/03 13:09:16;;;;;;;29.48;12.68;;;2.80;93.90;;;;;;5024179;28;20046;-75
2023/03/03 13:12:14;;;;;;;28.50;11.60;;;2.70;94.50;;;;;;5029310;28;20049;-75
2023/03/03 13:15:04;;;;;;;28.40;11.95;;;2.70;94.60;;;;;;5022644;28;20067;-75
2023/03/03 13:17:59;;;;;;;33.13;12.18;;;2.70;94.90;;;;;;5025328;28;20053;-75
2023/03/03 13:20:49;;;;;;;33.03;13.52;;;2.90;95.20;;;;;;5033540;28;20045;-75
2023/03/03 13:23:33;;;;;;;23.48;11.25;;;2.90;93.90;;;;;;5024134;28;20053;-74
2023/03/03 13:26:10;;;;;;;22.08;9.95;;;2.90;93.40;;;;;;5026535;28;20472;-75